sensor_id;sensor_type;location;lat;lon;timestamp;P1;durP1;ratioP1;P2;durP2;ratioP2
7917;SDS011;4004;42.624;23.386;2022-09-14T00:01:26;3.70;;;3.40;;
7917;SDS011;4004;42.624;23.386;2022-09-14T00:03:54;3.87;;;3.57;;
7917;SDS011;4004;42.624;23.386;2022-09-14T00:06:23;5.53;;;3.90;;
7917;SDS011;4004;42.624;23.386;2022-09-14T00:08:51;3.77;;;3.47;;
7917;SDS011;4004;42.624;23.386;2022-09-14T00:11:19;3.70;;;3.40;;
7917;SDS011;4004;42.624;23.386;2022-09-14T00:13:47;3.60;;;3.30;;
7917;SDS011;4004;42.624;23.386;2022-09-14T00:16:15;4.13;;;3.73;;
7917;SDS011;4004;42.624;23.386;2022-09-14T00:18:48;4.27;;;3.63;;
7917;SDS011;4004;42.624;23.386;2022-09-14T00:21:16;4.20;;;3.90;;
7917;SDS011;4004;42.624;23.386;2022-09-14T00:23:42;4.00;;;3.60;;
7917;SDS011;4004;42.624;23.386;2022-09-14T00:26:10;4.73;;;3.37;;
7917;SDS011;4004;42.624;23.386;2022-09-14T00:28:38;4.83;;;3.43;;
7917;SDS011;4004;42.624;23.386;2022-09-14T00:31:06;4.00;;;3.70;;
7917;SDS011;4004;42.624;23.386;2022-09-14T00:33:33;3.50;;;3.20;;
7917;SDS011;4004;42.624;23.386;2022-09-14T00:36:06;3.30;;;3.10;;
7917;SDS011;4004;42.624;23.386;2022-09-14T00:38:35;3.90;;;3.63;;
7917;SDS011;4004;42.624;23.386;2022-09-14T00:41:03;3.83;;;3.53;;
7917;SDS011;4004;42.624;23.386;2022-09-14T00:43:31;3.63;;;3.33;;
7917;SDS011;4004;42.624;23.386;2022-09-14T00:45:59;4.17;;;3.80;;
7917;SDS011;4004;42.624;23.386;2022-09-14T00:48:26;4.20;;;3.80;;
7917;SDS011;4004;42.624;23.386;2022-09-14T00:50:55;4.20;;;3.87;;
7917;SDS011;4004;42.624;23.386;2022-09-14T00:53:23;5.37;;;3.40;;
7917;SDS011;4004;42.624;23.386;2022-09-14T00:55:50;3.73;;;3.43;;
7917;SDS011;4004;42.624;23.386;2022-09-14T00:58:18;4.97;;;3.60;;
7917;SDS011;4004;42.624;23.386;2022-09-14T01:00:46;4.27;;;3.90;;
7917;SDS011;4004;42.624;23.386;2022-09-14T01:03:13;3.87;;;3.57;;
7917;SDS011;4004;42.624;23.386;2022-09-14T01:05:44;3.80;;;3.50;;
7917;SDS011;4004;42.624;23.386;2022-09-14T01:11:23;3.77;;;3.47;;
7917;SDS011;4004;42.624;23.386;2022-09-14T01:14:05;3.90;;;3.57;;
7917;SDS011;4004;42.624;23.386;2022-09-14T01:16:40;6.47;;;3.37;;
7917;SDS011;4004;42.624;23.386;2022-09-14T01:19:14;4.13;;;3.70;;
7917;SDS011;4004;42.624;23.386;2022-09-14T01:21:59;4.70;;;3.50;;
7917;SDS011;4004;42.624;23.386;2022-09-14T01:24:38;5.27;;;3.47;;
7917;SDS011;4004;42.624;23.386;2022-09-14T01:27:26;3.97;;;3.60;;
7917;SDS011;4004;42.624;23.386;2022-09-14T01:30:01;3.40;;;3.10;;
7917;SDS011;4004;42.624;23.386;2022-09-14T01:32:31;3.77;;;3.40;;
7917;SDS011;4004;42.624;23.386;2022-09-14T01:35:03;3.40;;;3.10;;
7917;SDS011;4004;42.624;23.386;2022-09-14T01:37:33;3.57;;;3.23;;
7917;SDS011;4004;42.624;23.386;2022-09-14T01:40:04;4.13;;;2.83;;
7917;SDS011;4004;42.624;23.386;2022-09-14T01:42:37;3.20;;;3.00;;
7917;SDS011;4004;42.624;23.386;2022-09-14T01:45:07;3.57;;;3.27;;
7917;SDS011;4004;42.624;23.386;2022-09-14T01:47:37;3.83;;;3.53;;
7917;SDS011;4004;42.624;23.386;2022-09-14T01:50:10;3.63;;;3.33;;
7917;SDS011;4004;42.624;23.386;2022-09-14T01:52:41;3.30;;;3.00;;
7917;SDS011;4004;42.624;23.386;2022-09-14T01:55:12;3.23;;;3.00;;
7917;SDS011;4004;42.624;23.386;2022-09-14T01:57:45;3.27;;;3.00;;
7917;SDS011;4004;42.624;23.386;2022-09-14T02:00:16;4.10;;;3.13;;
7917;SDS011;4004;42.624;23.386;2022-09-14T02:02:46;4.03;;;2.80;;
7917;SDS011;4004;42.624;23.386;2022-09-14T02:05:15;3.53;;;3.13;;
7917;SDS011;4004;42.624;23.386;2022-09-14T02:07:47;3.40;;;3.10;;
7917;SDS011;4004;42.624;23.386;2022-09-14T02:10:14;3.97;;;3.07;;
7917;SDS011;4004;42.624;23.386;2022-09-14T02:12:42;3.50;;;3.20;;
7917;SDS011;4004;42.624;23.386;2022-09-14T02:15:11;3.40;;;3.13;;
7917;SDS011;4004;42.624;23.386;2022-09-14T02:17:39;5.37;;;3.03;;
7917;SDS011;4004;42.624;23.386;2022-09-14T02:20:08;3.20;;;2.90;;
7917;SDS011;4004;42.624;23.386;2022-09-14T02:22:40;3.30;;;3.10;;
7917;SDS011;4004;42.624;23.386;2022-09-14T02:25:07;6.07;;;3.10;;
7917;SDS011;4004;42.624;23.386;2022-09-14T02:27:34;3.40;;;3.17;;
7917;SDS011;4004;42.624;23.386;2022-09-14T02:30:02;3.50;;;3.20;;
7917;SDS011;4004;42.624;23.386;2022-09-14T02:32:29;7.10;;;3.57;;
7917;SDS011;4004;42.624;23.386;2022-09-14T02:35:04;5.50;;;3.07;;
7917;SDS011;4004;42.624;23.386;2022-09-14T02:37:42;3.80;;;3.30;;
7917;SDS011;4004;42.624;23.386;2022-09-14T02:40:16;3.40;;;3.10;;
7917;SDS011;4004;42.624;23.386;2022-09-14T02:42:50;3.77;;;2.90;;
7917;SDS011;4004;42.624;23.386;2022-09-14T02:45:26;3.43;;;3.20;;
7917;SDS011;4004;42.624;23.386;2022-09-14T02:48:00;5.43;;;3.17;;
7917;SDS011;4004;42.624;23.386;2022-09-14T02:50:33;3.63;;;2.90;;
7917;SDS011;4004;42.624;23.386;2022-09-14T02:53:07;4.00;;;3.03;;
7917;SDS011;4004;42.624;23.386;2022-09-14T02:55:40;3.43;;;3.13;;
7917;SDS011;4004;42.624;23.386;2022-09-14T02:58:12;3.20;;;2.90;;
7917;SDS011;4004;42.624;23.386;2022-09-14T03:00:41;3.93;;;3.03;;
7917;SDS011;4004;42.624;23.386;2022-09-14T03:03:10;4.37;;;3.17;;
7917;SDS011;4004;42.624;23.386;2022-09-14T03:05:38;5.57;;;3.00;;
7917;SDS011;4004;42.624;23.386;2022-09-14T03:08:06;4.23;;;3.70;;
7917;SDS011;4004;42.624;23.386;2022-09-14T03:10:34;4.93;;;3.30;;
7917;SDS011;4004;42.624;23.386;2022-09-14T03:13:01;4.63;;;2.97;;
7917;SDS011;4004;42.624;23.386;2022-09-14T03:15:28;3.50;;;3.20;;
7917;SDS011;4004;42.624;23.386;2022-09-14T03:17:57;8.47;;;4.03;;
7917;SDS011;4004;42.624;23.386;2022-09-14T03:20:24;9.50;;;3.70;;
7917;SDS011;4004;42.624;23.386;2022-09-14T03:22:52;4.80;;;3.53;;
7917;SDS011;4004;42.624;23.386;2022-09-14T03:25:20;3.53;;;3.23;;
7917;SDS011;4004;42.624;23.386;2022-09-14T03:27:48;3.47;;;3.17;;
7917;SDS011;4004;42.624;23.386;2022-09-14T03:30:15;7.67;;;3.40;;
7917;SDS011;4004;42.624;23.386;2022-09-14T03:32:43;3.70;;;3.40;;
7917;SDS011;4004;42.624;23.386;2022-09-14T03:35:11;6.27;;;3.57;;
7917;SDS011;4004;42.624;23.386;2022-09-14T03:37:39;3.73;;;3.10;;
7917;SDS011;4004;42.624;23.386;2022-09-14T03:40:07;5.43;;;3.90;;
7917;SDS011;4004;42.624;23.386;2022-09-14T03:42:35;4.77;;;3.50;;
7917;SDS011;4004;42.624;23.386;2022-09-14T03:45:08;7.10;;;3.60;;
7917;SDS011;4004;42.624;23.386;2022-09-14T03:47:36;5.30;;;4.13;;
7917;SDS011;4004;42.624;23.386;2022-09-14T03:50:03;9.03;;;3.63;;
7917;SDS011;4004;42.624;23.386;2022-09-14T03:52:33;4.07;;;3.67;;
7917;SDS011;4004;42.624;23.386;2022-09-14T03:55:00;5.40;;;3.93;;
7917;SDS011;4004;42.624;23.386;2022-09-14T03:57:28;4.13;;;3.43;;
7917;SDS011;4004;42.624;23.386;2022-09-14T03:59:55;6.40;;;3.87;;
7917;SDS011;4004;42.624;23.386;2022-09-14T04:02:22;5.10;;;3.90;;
7917;SDS011;4004;42.624;23.386;2022-09-14T04:04:48;7.37;;;4.20;;
7917;SDS011;4004;42.624;23.386;2022-09-14T04:07:16;4.53;;;3.80;;
7917;SDS011;4004;42.624;23.386;2022-09-14T04:09:44;5.37;;;3.47;;
7917;SDS011;4004;42.624;23.386;2022-09-14T04:12:11;14.00;;;4.80;;
7917;SDS011;4004;42.624;23.386;2022-09-14T04:14:37;6.43;;;4.23;;
7917;SDS011;4004;42.624;23.386;2022-09-14T04:17:04;5.13;;;4.07;;
7917;SDS011;4004;42.624;23.386;2022-09-14T04:19:31;4.50;;;4.10;;
7917;SDS011;4004;42.624;23.386;2022-09-14T04:22:01;4.23;;;3.83;;
7917;SDS011;4004;42.624;23.386;2022-09-14T04:24:28;3.87;;;3.47;;
7917;SDS011;4004;42.624;23.386;2022-09-14T04:26:57;4.67;;;3.60;;
7917;SDS011;4004;42.624;23.386;2022-09-14T04:29:23;14.00;;;3.40;;
7917;SDS011;4004;42.624;23.386;2022-09-14T04:31:50;8.03;;;3.80;;
7917;SDS011;4004;42.624;23.386;2022-09-14T04:34:17;4.87;;;3.23;;
7917;SDS011;4004;42.624;23.386;2022-09-14T04:36:44;8.10;;;3.50;;
7917;SDS011;4004;42.624;23.386;2022-09-14T04:39:11;8.53;;;2.97;;
7917;SDS011;4004;42.624;23.386;2022-09-14T04:41:39;4.33;;;3.30;;
7917;SDS011;4004;42.624;23.386;2022-09-14T04:44:07;6.80;;;3.70;;
7917;SDS011;4004;42.624;23.386;2022-09-14T04:46:34;7.80;;;2.80;;
7917;SDS011;4004;42.624;23.386;2022-09-14T04:49:03;6.93;;;3.00;;
7917;SDS011;4004;42.624;23.386;2022-09-14T04:51:31;13.13;;;3.47;;
7917;SDS011;4004;42.624;23.386;2022-09-14T04:54:00;14.47;;;4.10;;
7917;SDS011;4004;42.624;23.386;2022-09-14T04:56:29;9.33;;;3.93;;
7917;SDS011;4004;42.624;23.386;2022-09-14T04:58:58;6.47;;;2.97;;
7917;SDS011;4004;42.624;23.386;2022-09-14T05:01:30;9.70;;;2.90;;
7917;SDS011;4004;42.624;23.386;2022-09-14T05:03:58;13.67;;;3.83;;
7917;SDS011;4004;42.624;23.386;2022-09-14T05:06:26;20.17;;;3.70;;
7917;SDS011;4004;42.624;23.386;2022-09-14T05:08:53;21.13;;;4.00;;
7917;SDS011;4004;42.624;23.386;2022-09-14T05:11:21;12.10;;;2.93;;
7917;SDS011;4004;42.624;23.386;2022-09-14T05:13:49;16.70;;;3.77;;
7917;SDS011;4004;42.624;23.386;2022-09-14T05:16:16;13.60;;;3.73;;
7917;SDS011;4004;42.624;23.386;2022-09-14T05:18:46;26.80;;;5.17;;
7917;SDS011;4004;42.624;23.386;2022-09-14T05:21:14;11.20;;;3.70;;
7917;SDS011;4004;42.624;23.386;2022-09-14T05:23:42;13.63;;;4.70;;
7917;SDS011;4004;42.624;23.386;2022-09-14T05:26:09;6.77;;;4.50;;
7917;SDS011;4004;42.624;23.386;2022-09-14T05:28:36;5.47;;;2.90;;
7917;SDS011;4004;42.624;23.386;2022-09-14T05:31:03;13.90;;;4.17;;
7917;SDS011;4004;42.624;23.386;2022-09-14T05:33:31;8.73;;;3.67;;
7917;SDS011;4004;42.624;23.386;2022-09-14T05:36:00;6.50;;;3.13;;
7917;SDS011;4004;42.624;23.386;2022-09-14T05:38:29;3.60;;;2.90;;
7917;SDS011;4004;42.624;23.386;2022-09-14T05:40:55;6.63;;;3.43;;
7917;SDS011;4004;42.624;23.386;2022-09-14T05:43:23;6.53;;;3.20;;
7917;SDS011;4004;42.624;23.386;2022-09-14T05:45:50;3.27;;;2.63;;
7917;SDS011;4004;42.624;23.386;2022-09-14T05:48:18;5.73;;;3.17;;
7917;SDS011;4004;42.624;23.386;2022-09-14T05:50:45;8.00;;;3.30;;
7917;SDS011;4004;42.624;23.386;2022-09-14T05:53:13;9.13;;;3.43;;
7917;SDS011;4004;42.624;23.386;2022-09-14T05:55:40;4.93;;;3.17;;
7917;SDS011;4004;42.624;23.386;2022-09-14T05:58:06;5.13;;;2.87;;
7917;SDS011;4004;42.624;23.386;2022-09-14T06:00:34;2.90;;;2.50;;
7917;SDS011;4004;42.624;23.386;2022-09-14T06:03:03;3.23;;;2.70;;
7917;SDS011;4004;42.624;23.386;2022-09-14T06:05:31;12.33;;;3.70;;
7917;SDS011;4004;42.624;23.386;2022-09-14T06:07:59;4.67;;;2.90;;
7917;SDS011;4004;42.624;23.386;2022-09-14T06:10:27;9.67;;;3.47;;
7917;SDS011;4004;42.624;23.386;2022-09-14T06:12:54;4.43;;;2.60;;
7917;SDS011;4004;42.624;23.386;2022-09-14T06:15:21;6.37;;;3.20;;
7917;SDS011;4004;42.624;23.386;2022-09-14T06:17:48;4.17;;;2.80;;
7917;SDS011;4004;42.624;23.386;2022-09-14T06:20:15;2.70;;;2.33;;
7917;SDS011;4004;42.624;23.386;2022-09-14T06:22:43;7.90;;;2.83;;
7917;SDS011;4004;42.624;23.386;2022-09-14T06:25:10;6.80;;;2.70;;
7917;SDS011;4004;42.624;23.386;2022-09-14T06:27:38;4.17;;;2.47;;
7917;SDS011;4004;42.624;23.386;2022-09-14T06:30:05;3.93;;;2.37;;
7917;SDS011;4004;42.624;23.386;2022-09-14T06:32:32;4.10;;;2.50;;
7917;SDS011;4004;42.624;23.386;2022-09-14T06:34:59;6.03;;;2.67;;
7917;SDS011;4004;42.624;23.386;2022-09-14T06:37:27;3.93;;;3.20;;
7917;SDS011;4004;42.624;23.386;2022-09-14T06:39:54;9.27;;;3.00;;
7917;SDS011;4004;42.624;23.386;2022-09-14T06:42:21;6.17;;;3.00;;
7917;SDS011;4004;42.624;23.386;2022-09-14T06:44:49;3.73;;;2.80;;
7917;SDS011;4004;42.624;23.386;2022-09-14T06:47:15;6.00;;;3.00;;
7917;SDS011;4004;42.624;23.386;2022-09-14T06:49:42;4.83;;;3.40;;
7917;SDS011;4004;42.624;23.386;2022-09-14T06:52:09;6.07;;;3.30;;
7917;SDS011;4004;42.624;23.386;2022-09-14T06:54:36;6.40;;;3.00;;
7917;SDS011;4004;42.624;23.386;2022-09-14T06:57:02;11.97;;;3.40;;
7917;SDS011;4004;42.624;23.386;2022-09-14T06:59:31;5.13;;;2.63;;
7917;SDS011;4004;42.624;23.386;2022-09-14T07:01:59;3.27;;;2.77;;
7917;SDS011;4004;42.624;23.386;2022-09-14T07:04:25;5.70;;;2.90;;
7917;SDS011;4004;42.624;23.386;2022-09-14T07:06:52;6.73;;;3.40;;
7917;SDS011;4004;42.624;23.386;2022-09-14T07:09:19;6.47;;;3.43;;
7917;SDS011;4004;42.624;23.386;2022-09-14T07:11:46;5.90;;;3.00;;
7917;SDS011;4004;42.624;23.386;2022-09-14T07:14:13;2.83;;;2.60;;
7917;SDS011;4004;42.624;23.386;2022-09-14T07:16:41;5.83;;;3.53;;
7917;SDS011;4004;42.624;23.386;2022-09-14T07:19:11;5.40;;;3.00;;
7917;SDS011;4004;42.624;23.386;2022-09-14T07:21:39;3.47;;;2.43;;
7917;SDS011;4004;42.624;23.386;2022-09-14T07:24:07;5.03;;;2.80;;
7917;SDS011;4004;42.624;23.386;2022-09-14T07:26:36;4.27;;;2.80;;
7917;SDS011;4004;42.624;23.386;2022-09-14T07:29:06;3.03;;;2.67;;
7917;SDS011;4004;42.624;23.386;2022-09-14T07:31:36;3.17;;;2.87;;
7917;SDS011;4004;42.624;23.386;2022-09-14T07:34:05;8.63;;;3.13;;
7917;SDS011;4004;42.624;23.386;2022-09-14T07:36:33;4.87;;;3.13;;
7917;SDS011;4004;42.624;23.386;2022-09-14T07:39:02;6.37;;;3.43;;
7917;SDS011;4004;42.624;23.386;2022-09-14T07:41:29;4.13;;;3.20;;
7917;SDS011;4004;42.624;23.386;2022-09-14T07:43:58;5.73;;;2.83;;
7917;SDS011;4004;42.624;23.386;2022-09-14T07:46:26;4.60;;;2.70;;
7917;SDS011;4004;42.624;23.386;2022-09-14T07:48:54;6.77;;;2.80;;
7917;SDS011;4004;42.624;23.386;2022-09-14T07:51:22;4.93;;;3.20;;
7917;SDS011;4004;42.624;23.386;2022-09-14T07:53:51;3.60;;;2.73;;
7917;SDS011;4004;42.624;23.386;2022-09-14T07:56:18;7.63;;;2.77;;
7917;SDS011;4004;42.624;23.386;2022-09-14T07:58:46;2.93;;;2.50;;
7917;SDS011;4004;42.624;23.386;2022-09-14T08:01:14;3.63;;;2.60;;
7917;SDS011;4004;42.624;23.386;2022-09-14T08:03:43;5.27;;;2.60;;
7917;SDS011;4004;42.624;23.386;2022-09-14T08:06:11;7.03;;;2.70;;
7917;SDS011;4004;42.624;23.386;2022-09-14T08:08:40;9.50;;;3.70;;
7917;SDS011;4004;42.624;23.386;2022-09-14T08:11:10;4.50;;;2.63;;
7917;SDS011;4004;42.624;23.386;2022-09-14T08:13:39;5.37;;;3.20;;
7917;SDS011;4004;42.624;23.386;2022-09-14T08:16:07;6.20;;;3.50;;
7917;SDS011;4004;42.624;23.386;2022-09-14T08:18:36;5.77;;;3.20;;
7917;SDS011;4004;42.624;23.386;2022-09-14T08:21:04;10.60;;;3.13;;
7917;SDS011;4004;42.624;23.386;2022-09-14T08:23:32;6.30;;;3.23;;
7917;SDS011;4004;42.624;23.386;2022-09-14T08:26:02;5.53;;;2.90;;
7917;SDS011;4004;42.624;23.386;2022-09-14T08:28:31;5.63;;;3.00;;
7917;SDS011;4004;42.624;23.386;2022-09-14T08:31:02;6.13;;;2.97;;
7917;SDS011;4004;42.624;23.386;2022-09-14T08:33:30;7.10;;;3.33;;
7917;SDS011;4004;42.624;23.386;2022-09-14T08:35:57;3.90;;;3.03;;
7917;SDS011;4004;42.624;23.386;2022-09-14T08:38:24;5.93;;;3.07;;
7917;SDS011;4004;42.624;23.386;2022-09-14T08:40:51;14.47;;;3.50;;
7917;SDS011;4004;42.624;23.386;2022-09-14T08:43:18;7.90;;;3.37;;
7917;SDS011;4004;42.624;23.386;2022-09-14T08:45:51;4.40;;;2.83;;
7917;SDS011;4004;42.624;23.386;2022-09-14T08:48:26;8.07;;;2.80;;
7917;SDS011;4004;42.624;23.386;2022-09-14T08:50:56;7.03;;;3.37;;
7917;SDS011;4004;42.624;23.386;2022-09-14T08:53:23;12.77;;;3.20;;
7917;SDS011;4004;42.624;23.386;2022-09-14T08:55:52;6.70;;;2.80;;
7917;SDS011;4004;42.624;23.386;2022-09-14T08:58:25;6.03;;;3.27;;
7917;SDS011;4004;42.624;23.386;2022-09-14T09:01:07;4.57;;;3.10;;
7917;SDS011;4004;42.624;23.386;2022-09-14T09:03:51;13.27;;;3.73;;
7917;SDS011;4004;42.624;23.386;2022-09-14T09:06:37;12.33;;;3.40;;
7917;SDS011;4004;42.624;23.386;2022-09-14T09:09:12;6.13;;;2.73;;
7917;SDS011;4004;42.624;23.386;2022-09-14T09:11:45;14.77;;;3.60;;
7917;SDS011;4004;42.624;23.386;2022-09-14T09:14:16;5.00;;;2.93;;
7917;SDS011;4004;42.624;23.386;2022-09-14T09:16:47;6.33;;;2.80;;
7917;SDS011;4004;42.624;23.386;2022-09-14T09:19:16;7.87;;;2.50;;
7917;SDS011;4004;42.624;23.386;2022-09-14T09:21:48;6.80;;;3.10;;
7917;SDS011;4004;42.624;23.386;2022-09-14T09:24:19;11.50;;;4.37;;
7917;SDS011;4004;42.624;23.386;2022-09-14T09:26:51;7.67;;;3.00;;
7917;SDS011;4004;42.624;23.386;2022-09-14T09:29:18;14.33;;;3.90;;
7917;SDS011;4004;42.624;23.386;2022-09-14T09:31:45;7.70;;;3.27;;
7917;SDS011;4004;42.624;23.386;2022-09-14T09:34:16;6.37;;;3.00;;
7917;SDS011;4004;42.624;23.386;2022-09-14T09:36:50;12.87;;;3.77;;
7917;SDS011;4004;42.624;23.386;2022-09-14T09:39:16;6.20;;;3.23;;
7917;SDS011;4004;42.624;23.386;2022-09-14T09:41:44;4.67;;;2.90;;
7917;SDS011;4004;42.624;23.386;2022-09-14T09:44:13;7.87;;;3.00;;
7917;SDS011;4004;42.624;23.386;2022-09-14T09:46:44;5.33;;;2.93;;
7917;SDS011;4004;42.624;23.386;2022-09-14T09:49:19;7.33;;;2.90;;
7917;SDS011;4004;42.624;23.386;2022-09-14T09:51:48;19.40;;;3.70;;
7917;SDS011;4004;42.624;23.386;2022-09-14T09:54:21;7.20;;;3.10;;
7917;SDS011;4004;42.624;23.386;2022-09-14T09:56:51;7.57;;;3.53;;
7917;SDS011;4004;42.624;23.386;2022-09-14T09:59:25;4.83;;;2.83;;
7917;SDS011;4004;42.624;23.386;2022-09-14T10:01:54;11.33;;;3.10;;
7917;SDS011;4004;42.624;23.386;2022-09-14T10:04:24;7.57;;;2.83;;
7917;SDS011;4004;42.624;23.386;2022-09-14T10:06:54;6.00;;;2.57;;
7917;SDS011;4004;42.624;23.386;2022-09-14T10:09:22;6.80;;;2.70;;
7917;SDS011;4004;42.624;23.386;2022-09-14T10:11:56;4.23;;;3.20;;
7917;SDS011;4004;42.624;23.386;2022-09-14T10:14:25;6.37;;;3.27;;
7917;SDS011;4004;42.624;23.386;2022-09-14T10:17:03;5.10;;;2.90;;
7917;SDS011;4004;42.624;23.386;2022-09-14T10:19:31;8.37;;;2.90;;
7917;SDS011;4004;42.624;23.386;2022-09-14T10:22:03;3.77;;;2.70;;
7917;SDS011;4004;42.624;23.386;2022-09-14T10:24:41;3.73;;;2.63;;
7917;SDS011;4004;42.624;23.386;2022-09-14T10:30:11;6.17;;;2.80;;
7917;SDS011;4004;42.624;23.386;2022-09-14T10:32:40;4.40;;;3.13;;
7917;SDS011;4004;42.624;23.386;2022-09-14T10:35:12;9.13;;;3.83;;
7917;SDS011;4004;42.624;23.386;2022-09-14T10:37:45;5.20;;;2.90;;
7917;SDS011;4004;42.624;23.386;2022-09-14T10:40:19;7.07;;;3.03;;
7917;SDS011;4004;42.624;23.386;2022-09-14T10:42:56;5.47;;;2.60;;
7917;SDS011;4004;42.624;23.386;2022-09-14T10:45:40;7.27;;;2.93;;
7917;SDS011;4004;42.624;23.386;2022-09-14T10:51:11;4.53;;;2.60;;
7917;SDS011;4004;42.624;23.386;2022-09-14T10:53:52;5.07;;;2.60;;
7917;SDS011;4004;42.624;23.386;2022-09-14T10:56:25;10.77;;;3.03;;
7917;SDS011;4004;42.624;23.386;2022-09-14T11:01:59;3.87;;;2.23;;
7917;SDS011;4004;42.624;23.386;2022-09-14T11:04:57;5.63;;;2.43;;
7917;SDS011;4004;42.624;23.386;2022-09-14T11:07:33;6.40;;;2.67;;
7917;SDS011;4004;42.624;23.386;2022-09-14T11:10:11;7.73;;;2.23;;
7917;SDS011;4004;42.624;23.386;2022-09-14T11:12:47;6.87;;;2.20;;
7917;SDS011;4004;42.624;23.386;2022-09-14T11:15:23;4.93;;;2.50;;
7917;SDS011;4004;42.624;23.386;2022-09-14T11:18:01;4.93;;;2.47;;
7917;SDS011;4004;42.624;23.386;2022-09-14T11:20:39;3.60;;;2.10;;
7917;SDS011;4004;42.624;23.386;2022-09-14T11:23:18;10.87;;;2.80;;
7917;SDS011;4004;42.624;23.386;2022-09-14T11:25:56;5.37;;;2.67;;
7917;SDS011;4004;42.624;23.386;2022-09-14T11:28:28;6.57;;;2.50;;
7917;SDS011;4004;42.624;23.386;2022-09-14T11:31:00;4.57;;;2.60;;
7917;SDS011;4004;42.624;23.386;2022-09-14T11:33:32;6.63;;;2.40;;
7917;SDS011;4004;42.624;23.386;2022-09-14T11:36:04;7.47;;;2.73;;
7917;SDS011;4004;42.624;23.386;2022-09-14T11:38:43;5.33;;;2.30;;
7917;SDS011;4004;42.624;23.386;2022-09-14T11:41:16;8.20;;;2.27;;
7917;SDS011;4004;42.624;23.386;2022-09-14T11:43:49;10.17;;;2.70;;
7917;SDS011;4004;42.624;23.386;2022-09-14T11:46:21;11.57;;;2.70;;
7917;SDS011;4004;42.624;23.386;2022-09-14T11:48:56;6.40;;;2.70;;
7917;SDS011;4004;42.624;23.386;2022-09-14T11:51:30;6.10;;;2.23;;
7917;SDS011;4004;42.624;23.386;2022-09-14T11:54:01;5.50;;;2.40;;
7917;SDS011;4004;42.624;23.386;2022-09-14T11:56:28;9.27;;;2.47;;
7917;SDS011;4004;42.624;23.386;2022-09-14T11:58:57;4.70;;;1.90;;
7917;SDS011;4004;42.624;23.386;2022-09-14T12:01:29;4.07;;;2.27;;
7917;SDS011;4004;42.624;23.386;2022-09-14T12:06:51;3.60;;;1.93;;
7917;SDS011;4004;42.624;23.386;2022-09-14T12:12:32;5.83;;;1.70;;
7917;SDS011;4004;42.624;23.386;2022-09-14T12:15:01;3.77;;;1.50;;
7917;SDS011;4004;42.624;23.386;2022-09-14T12:17:36;6.07;;;1.70;;
7917;SDS011;4004;42.624;23.386;2022-09-14T12:23:03;4.20;;;1.60;;
7917;SDS011;4004;42.624;23.386;2022-09-14T12:25:33;4.87;;;1.57;;
7917;SDS011;4004;42.624;23.386;2022-09-14T12:28:19;6.93;;;1.90;;
7917;SDS011;4004;42.624;23.386;2022-09-14T12:31:12;3.60;;;1.50;;
7917;SDS011;4004;42.624;23.386;2022-09-14T12:34:04;1.57;;;1.20;;
7917;SDS011;4004;42.624;23.386;2022-09-14T12:42:50;1.40;;;1.10;;
7917;SDS011;4004;42.624;23.386;2022-09-14T12:45:46;3.97;;;1.40;;
7917;SDS011;4004;42.624;23.386;2022-09-14T12:51:19;3.23;;;1.33;;
7917;SDS011;4004;42.624;23.386;2022-09-14T12:53:55;5.67;;;1.40;;
7917;SDS011;4004;42.624;23.386;2022-09-14T12:56:29;3.70;;;1.40;;
7917;SDS011;4004;42.624;23.386;2022-09-14T12:59:04;5.43;;;1.20;;
7917;SDS011;4004;42.624;23.386;2022-09-14T13:01:38;2.57;;;1.40;;
7917;SDS011;4004;42.624;23.386;2022-09-14T13:04:14;2.50;;;1.50;;
7917;SDS011;4004;42.624;23.386;2022-09-14T13:06:51;3.23;;;1.50;;
7917;SDS011;4004;42.624;23.386;2022-09-14T13:09:20;2.47;;;1.40;;
7917;SDS011;4004;42.624;23.386;2022-09-14T13:11:52;3.07;;;1.43;;
7917;SDS011;4004;42.624;23.386;2022-09-14T13:14:23;5.43;;;1.67;;
7917;SDS011;4004;42.624;23.386;2022-09-14T13:16:53;6.63;;;1.30;;
7917;SDS011;4004;42.624;23.386;2022-09-14T13:19:23;3.53;;;1.60;;
7917;SDS011;4004;42.624;23.386;2022-09-14T13:21:53;3.80;;;1.50;;
7917;SDS011;4004;42.624;23.386;2022-09-14T13:24:22;3.73;;;1.50;;
7917;SDS011;4004;42.624;23.386;2022-09-14T13:26:51;2.43;;;1.27;;
7917;SDS011;4004;42.624;23.386;2022-09-14T13:29:20;2.47;;;1.60;;
7917;SDS011;4004;42.624;23.386;2022-09-14T13:31:50;3.37;;;1.50;;
7917;SDS011;4004;42.624;23.386;2022-09-14T13:34:18;5.43;;;1.50;;
7917;SDS011;4004;42.624;23.386;2022-09-14T13:36:47;4.17;;;2.13;;
7917;SDS011;4004;42.624;23.386;2022-09-14T13:39:18;4.57;;;1.60;;
7917;SDS011;4004;42.624;23.386;2022-09-14T13:41:49;4.43;;;1.40;;
7917;SDS011;4004;42.624;23.386;2022-09-14T13:44:16;2.50;;;1.23;;
7917;SDS011;4004;42.624;23.386;2022-09-14T13:46:44;5.53;;;1.40;;
7917;SDS011;4004;42.624;23.386;2022-09-14T13:49:12;2.03;;;1.50;;
7917;SDS011;4004;42.624;23.386;2022-09-14T13:51:39;8.03;;;1.53;;
7917;SDS011;4004;42.624;23.386;2022-09-14T13:54:17;3.10;;;1.97;;
7917;SDS011;4004;42.624;23.386;2022-09-14T13:57:11;2.77;;;1.30;;
7917;SDS011;4004;42.624;23.386;2022-09-14T14:02:43;1.87;;;1.50;;
7917;SDS011;4004;42.624;23.386;2022-09-14T14:05:23;3.13;;;1.50;;
7917;SDS011;4004;42.624;23.386;2022-09-14T14:07:52;5.37;;;1.50;;
7917;SDS011;4004;42.624;23.386;2022-09-14T14:10:22;2.83;;;1.53;;
7917;SDS011;4004;42.624;23.386;2022-09-14T14:12:51;3.93;;;1.30;;
7917;SDS011;4004;42.624;23.386;2022-09-14T14:21:04;2.97;;;1.97;;
7917;SDS011;4004;42.624;23.386;2022-09-14T14:23:38;4.90;;;1.53;;
7917;SDS011;4004;42.624;23.386;2022-09-14T14:26:06;5.20;;;1.87;;
7917;SDS011;4004;42.624;23.386;2022-09-14T14:28:35;3.80;;;1.63;;
7917;SDS011;4004;42.624;23.386;2022-09-14T14:31:02;6.23;;;2.20;;
7917;SDS011;4004;42.624;23.386;2022-09-14T14:33:33;3.00;;;1.90;;
7917;SDS011;4004;42.624;23.386;2022-09-14T14:36:01;4.80;;;1.60;;
7917;SDS011;4004;42.624;23.386;2022-09-14T14:38:34;4.43;;;1.63;;
7917;SDS011;4004;42.624;23.386;2022-09-14T14:41:01;8.50;;;1.63;;
7917;SDS011;4004;42.624;23.386;2022-09-14T14:43:28;4.33;;;1.57;;
7917;SDS011;4004;42.624;23.386;2022-09-14T14:45:56;4.00;;;1.80;;
7917;SDS011;4004;42.624;23.386;2022-09-14T14:48:24;3.60;;;1.40;;
7917;SDS011;4004;42.624;23.386;2022-09-14T14:50:51;5.03;;;1.73;;
7917;SDS011;4004;42.624;23.386;2022-09-14T14:53:19;5.90;;;2.73;;
7917;SDS011;4004;42.624;23.386;2022-09-14T14:55:47;4.30;;;2.43;;
7917;SDS011;4004;42.624;23.386;2022-09-14T14:58:15;2.87;;;1.57;;
7917;SDS011;4004;42.624;23.386;2022-09-14T15:00:43;3.50;;;1.60;;
7917;SDS011;4004;42.624;23.386;2022-09-14T15:03:09;2.83;;;1.33;;
7917;SDS011;4004;42.624;23.386;2022-09-14T15:05:38;3.80;;;1.60;;
7917;SDS011;4004;42.624;23.386;2022-09-14T15:08:05;6.07;;;1.70;;
7917;SDS011;4004;42.624;23.386;2022-09-14T15:10:32;7.07;;;1.90;;
7917;SDS011;4004;42.624;23.386;2022-09-14T15:13:00;5.53;;;2.10;;
7917;SDS011;4004;42.624;23.386;2022-09-14T15:15:27;5.77;;;1.90;;
7917;SDS011;4004;42.624;23.386;2022-09-14T15:17:53;6.70;;;2.20;;
7917;SDS011;4004;42.624;23.386;2022-09-14T15:20:20;4.23;;;1.97;;
7917;SDS011;4004;42.624;23.386;2022-09-14T15:22:47;7.93;;;2.13;;
7917;SDS011;4004;42.624;23.386;2022-09-14T15:25:15;4.93;;;1.70;;
7917;SDS011;4004;42.624;23.386;2022-09-14T15:27:43;8.83;;;2.30;;
7917;SDS011;4004;42.624;23.386;2022-09-14T15:30:12;8.47;;;2.00;;
7917;SDS011;4004;42.624;23.386;2022-09-14T15:32:39;7.47;;;2.10;;
7917;SDS011;4004;42.624;23.386;2022-09-14T15:35:07;12.87;;;2.60;;
7917;SDS011;4004;42.624;23.386;2022-09-14T15:37:36;6.10;;;2.13;;
7917;SDS011;4004;42.624;23.386;2022-09-14T15:40:03;4.93;;;2.70;;
7917;SDS011;4004;42.624;23.386;2022-09-14T15:42:31;7.27;;;2.50;;
7917;SDS011;4004;42.624;23.386;2022-09-14T15:44:57;4.70;;;1.67;;
7917;SDS011;4004;42.624;23.386;2022-09-14T15:47:25;9.60;;;2.23;;
7917;SDS011;4004;42.624;23.386;2022-09-14T15:49:52;5.63;;;2.20;;
7917;SDS011;4004;42.624;23.386;2022-09-14T15:52:19;4.40;;;1.70;;
7917;SDS011;4004;42.624;23.386;2022-09-14T15:54:46;8.60;;;2.30;;
7917;SDS011;4004;42.624;23.386;2022-09-14T15:57:13;4.33;;;1.70;;